createdAt,value
2023-01-21T00:01:12.811Z,5.48
2023-01-21T00:03:39.842Z,5.56
2023-01-21T00:06:07.508Z,5.51
2023-01-21T00:08:34.321Z,5.48
2023-01-21T00:11:06.027Z,5.43
2023-01-21T00:13:34.696Z,5.40
2023-01-21T00:16:02.663Z,5.49
2023-01-21T00:18:30.225Z,5.37
2023-01-21T00:20:57.081Z,5.29
2023-01-21T00:23:23.979Z,5.28
2023-01-21T00:25:57.642Z,5.16
2023-01-21T00:28:24.571Z,5.17
2023-01-21T00:30:52.551Z,5.21
2023-01-21T00:33:20.657Z,5.18
2023-01-21T00:35:47.589Z,5.09
2023-01-21T00:38:14.404Z,5.09
2023-01-21T00:40:42.923Z,5.15
2023-01-21T00:43:09.720Z,5.09
2023-01-21T00:45:36.638Z,5.05
2023-01-21T00:48:03.681Z,5.09
2023-01-21T00:50:30.552Z,5.16
2023-01-21T00:52:57.396Z,5.11
2023-01-21T00:55:24.191Z,5.09
2023-01-21T00:57:53.231Z,5.04
2023-01-21T01:00:20.371Z,5.08
2023-01-21T01:02:47.331Z,5.08
2023-01-21T01:05:14.831Z,5.04
2023-01-21T01:07:43.517Z,4.95
2023-01-21T01:10:11.245Z,4.98
2023-01-21T01:12:38.010Z,4.85
2023-01-21T01:15:05.876Z,4.84
2023-01-21T01:17:32.715Z,4.88
2023-01-21T01:19:59.520Z,4.90
2023-01-21T01:22:26.570Z,4.85
2023-01-21T01:24:53.413Z,4.90
2023-01-21T01:27:20.385Z,4.90
2023-01-21T01:29:49.104Z,4.89
2023-01-21T01:32:15.948Z,4.88
2023-01-21T01:34:42.821Z,4.81
2023-01-21T01:37:09.652Z,4.76
2023-01-21T01:39:36.559Z,4.75
2023-01-21T01:42:03.729Z,4.78
2023-01-21T01:45:01.233Z,4.76
2023-01-21T01:47:44.319Z,4.78
2023-01-21T01:50:15.384Z,4.96
2023-01-21T01:52:43.788Z,4.97
2023-01-21T01:55:13.415Z,4.90
2023-01-21T01:57:43.694Z,4.91
2023-01-21T02:00:12.299Z,4.91
2023-01-21T02:02:41.658Z,4.95
2023-01-21T02:05:10.815Z,4.99
2023-01-21T02:07:42.811Z,4.97
2023-01-21T02:10:15.034Z,4.95
2023-01-21T02:12:43.844Z,4.92
2023-01-21T02:15:11.273Z,4.94
2023-01-21T02:17:53.217Z,4.92
2023-01-21T02:20:29.099Z,4.74
2023-01-21T02:22:59.058Z,4.74
2023-01-21T02:25:25.775Z,4.77
2023-01-21T02:28:17.157Z,4.72
2023-01-21T02:31:19.266Z,4.82
2023-01-21T02:33:48.884Z,4.79
2023-01-21T02:36:34.447Z,4.78
2023-01-21T02:39:07.250Z,4.79
2023-01-21T02:41:46.426Z,4.85
2023-01-21T02:44:39.259Z,4.88
2023-01-21T02:47:26.263Z,4.82
2023-01-21T02:49:59.745Z,4.70
2023-01-21T02:52:27.226Z,4.77
2023-01-21T02:54:55.388Z,4.74
2023-01-21T02:57:39.197Z,4.71
2023-01-21T03:00:17.071Z,4.73
2023-01-21T03:02:59.313Z,4.69
2023-01-21T03:06:00.931Z,4.65
2023-01-21T03:08:40.569Z,4.63
2023-01-21T03:11:17.027Z,4.59
2023-01-21T03:27:50.880Z,3.42
2023-01-21T03:30:21.590Z,3.51
2023-01-21T03:32:50.891Z,3.60
2023-01-21T03:35:32.440Z,3.71
2023-01-21T03:38:03.469Z,3.82
2023-01-21T03:40:37.610Z,3.85
2023-01-21T03:43:04.669Z,3.94
2023-01-21T03:45:37.404Z,4.03
2023-01-21T03:48:13.590Z,4.06
2023-01-21T03:50:46.072Z,3.97
2023-01-21T03:53:13.111Z,4.01
2023-01-21T03:55:39.919Z,4.02
2023-01-21T03:58:06.763Z,4.03
2023-01-21T04:00:33.593Z,4.03
2023-01-21T04:03:00.577Z,3.93
2023-01-21T04:05:27.473Z,3.93
2023-01-21T04:07:54.420Z,3.88
2023-01-21T04:10:21.318Z,3.91
2023-01-21T04:12:48.110Z,3.91
2023-01-21T04:15:15.093Z,3.89
2023-01-21T04:17:41.984Z,3.95
2023-01-21T04:20:09.423Z,4.03
2023-01-21T04:22:36.939Z,4.00
2023-01-21T04:25:05.279Z,3.99
2023-01-21T04:27:32.289Z,3.95
2023-01-21T04:29:59.234Z,3.93
2023-01-21T04:32:26.084Z,4.02
2023-01-21T04:34:53.058Z,4.03
2023-01-21T04:37:19.976Z,4.18
2023-01-21T04:39:46.883Z,4.26
2023-01-21T04:42:13.875Z,4.35
2023-01-21T04:44:40.971Z,4.42
2023-01-21T04:47:07.813Z,4.43
2023-01-21T04:49:34.671Z,4.33
2023-01-21T04:52:01.503Z,4.32
2023-01-21T04:54:28.441Z,4.26
2023-01-21T04:56:55.346Z,4.25
2023-01-21T04:59:22.237Z,4.30
2023-01-21T05:01:49.082Z,4.40
2023-01-21T05:04:16.104Z,4.41
2023-01-21T05:06:42.977Z,4.52
2023-01-21T05:09:09.923Z,4.62
2023-01-21T05:11:36.761Z,4.76
2023-01-21T05:14:03.653Z,4.81
2023-01-21T05:16:30.541Z,4.79
2023-01-21T05:18:57.397Z,4.71
2023-01-21T05:21:24.306Z,4.74
2023-01-21T05:23:51.224Z,4.82
2023-01-21T05:26:19.535Z,4.86
2023-01-21T05:28:46.517Z,4.90
2023-01-21T05:31:13.591Z,4.94
2023-01-21T05:33:40.532Z,5.01
2023-01-21T05:36:07.861Z,4.90
2023-01-21T05:38:34.734Z,4.99
2023-01-21T05:41:03.148Z,5.07
2023-01-21T05:43:30.366Z,5.30
2023-01-21T05:45:57.656Z,5.55
2023-01-21T05:48:24.977Z,5.78
2023-01-21T05:50:51.902Z,6.11
2023-01-21T05:53:18.976Z,6.49
2023-01-21T05:55:46.180Z,6.88
2023-01-21T05:58:13.176Z,7.30
2023-01-21T06:00:41.982Z,7.92
2023-01-21T06:03:09.640Z,8.60
2023-01-21T06:05:36.779Z,9.22
2023-01-21T06:08:03.808Z,9.82
2023-01-21T06:10:30.608Z,10.23
2023-01-21T06:12:57.476Z,10.92
2023-01-21T06:15:25.852Z,12.02
2023-01-21T06:17:53.657Z,12.48
2023-01-21T06:20:20.729Z,12.89
2023-01-21T06:22:47.840Z,13.65
2023-01-21T06:25:14.804Z,14.10
2023-01-21T06:27:41.744Z,14.04
2023-01-21T06:30:11.093Z,13.89
2023-01-21T06:32:38.224Z,14.39
2023-01-21T06:35:05.595Z,14.52
2023-01-21T06:37:32.385Z,15.37
2023-01-21T06:39:59.225Z,14.60
2023-01-21T06:42:26.150Z,14.68
2023-01-21T06:44:53.056Z,14.54
2023-01-21T06:47:19.980Z,15.29
2023-01-21T06:49:46.786Z,15.54
2023-01-21T06:52:13.600Z,14.93
2023-01-21T06:54:40.508Z,15.27
2023-01-21T06:57:07.409Z,16.54
2023-01-21T06:59:34.288Z,17.32
2023-01-21T07:02:01.464Z,17.75
2023-01-21T07:04:28.815Z,17.75
2023-01-21T07:06:55.683Z,18.38
2023-01-21T07:09:22.632Z,17.85
2023-01-21T07:11:49.977Z,18.64
2023-01-21T07:14:17.041Z,19.52
2023-01-21T07:16:43.935Z,18.84
2023-01-21T07:19:11.654Z,18.36
2023-01-21T07:21:41.349Z,20.13
2023-01-21T07:24:09.496Z,20.08
2023-01-21T07:26:38.293Z,20.39
2023-01-21T07:29:06.629Z,21.19
2023-01-21T07:31:34.179Z,21.15
2023-01-21T07:34:01.711Z,21.38
2023-01-21T07:36:28.647Z,20.85
2023-01-21T07:38:55.759Z,20.81
2023-01-21T07:41:23.181Z,20.10
2023-01-21T07:43:51.034Z,20.08
2023-01-21T07:46:19.315Z,19.28
2023-01-21T07:48:51.173Z,19.75
2023-01-21T07:51:19.562Z,21.49
2023-01-21T07:53:46.596Z,21.38
2023-01-21T07:56:13.973Z,21.12
2023-01-21T07:58:41.003Z,22.05
2023-01-21T08:01:09.721Z,22.50
2023-01-21T08:03:38.855Z,23.10
2023-01-21T08:06:06.757Z,22.17
2023-01-21T08:08:33.912Z,23.02
2023-01-21T08:11:00.876Z,24.70
2023-01-21T08:13:28.056Z,23.77
2023-01-21T08:15:56.881Z,25.23
2023-01-21T08:18:24.476Z,25.30
2023-01-21T08:20:56.604Z,25.32
2023-01-21T08:23:24.557Z,25.17
2023-01-21T08:25:51.740Z,25.30
2023-01-21T08:28:18.669Z,25.05
2023-01-21T08:30:45.714Z,24.75
2023-01-21T08:33:13.002Z,24.16
2023-01-21T08:35:39.995Z,22.89
2023-01-21T08:38:07.006Z,23.20
2023-01-21T08:40:34.186Z,23.77
2023-01-21T08:43:02.701Z,23.77
2023-01-21T08:45:30.920Z,22.95
2023-01-21T08:47:57.849Z,23.12
2023-01-21T08:50:24.702Z,22.22
2023-01-21T08:52:53.448Z,23.90
2023-01-21T08:55:21.405Z,22.88
2023-01-21T08:57:52.138Z,21.58
2023-01-21T09:00:20.476Z,20.54
2023-01-21T09:02:47.427Z,20.90
2023-01-21T09:05:15.088Z,21.87
2023-01-21T09:07:42.087Z,22.28
2023-01-21T09:10:09.618Z,23.08
2023-01-21T09:12:38.365Z,22.79
2023-01-21T09:15:05.928Z,22.65
2023-01-21T09:17:32.902Z,22.48
2023-01-21T09:19:59.751Z,23.34
2023-01-21T09:22:27.486Z,24.94
2023-01-21T09:24:54.410Z,25.03
2023-01-21T09:27:27.332Z,23.32
2023-01-21T09:29:54.874Z,21.52
2023-01-21T09:32:21.907Z,19.06
2023-01-21T09:34:48.704Z,17.81
2023-01-21T09:37:15.592Z,16.57
2023-01-21T09:39:42.623Z,16.38
2023-01-21T09:42:20.336Z,15.90
2023-01-21T09:44:51.272Z,17.91
2023-01-21T09:47:51.656Z,17.69
2023-01-21T09:50:22.426Z,17.47
2023-01-21T09:52:54.848Z,17.39
2023-01-21T09:55:28.737Z,19.05
2023-01-21T09:58:20.314Z,20.20
2023-01-21T10:00:57.574Z,21.02
2023-01-21T10:03:39.393Z,20.17
2023-01-21T10:06:16.839Z,19.94
2023-01-21T10:08:51.519Z,20.28
2023-01-21T10:11:46.205Z,22.17
2023-01-21T10:14:41.035Z,22.90
2023-01-21T10:17:21.854Z,23.53
2023-01-21T10:19:56.823Z,24.68
2023-01-21T10:22:29.945Z,25.33
2023-01-21T10:25:03.311Z,25.72
2023-01-21T10:27:35.786Z,25.83
2023-01-21T10:30:21.168Z,25.78
2023-01-21T10:32:51.486Z,24.93
2023-01-21T10:35:20.658Z,24.20
2023-01-21T10:38:14.911Z,24.06
2023-01-21T10:41:10.323Z,22.89
2023-01-21T10:44:24.866Z,20.36
2023-01-21T10:46:59.489Z,20.47
2023-01-21T10:49:50.572Z,22.87
2023-01-21T10:52:31.712Z,22.92
2023-01-21T10:55:07.698Z,24.35
2023-01-21T10:57:55.594Z,22.64
2023-01-21T11:00:36.808Z,22.51
2023-01-21T11:03:17.256Z,22.03
2023-01-21T11:05:45.030Z,23.09
2023-01-21T11:08:20.296Z,23.75
2023-01-21T11:10:50.180Z,24.15
2023-01-21T11:13:17.030Z,23.35
2023-01-21T11:15:48.229Z,24.04
2023-01-21T11:18:31.036Z,23.75
2023-01-21T11:21:00.750Z,24.25
2023-01-21T11:23:34.849Z,21.07
2023-01-21T11:26:04.631Z,21.29
2023-01-21T11:28:31.971Z,21.18
2023-01-21T11:31:15.632Z,20.81
2023-01-21T11:33:43.796Z,21.84
2023-01-21T11:36:19.437Z,21.15
2023-01-21T11:38:59.760Z,21.47
2023-01-21T11:41:26.636Z,19.97
2023-01-21T11:44:10.690Z,18.02
2023-01-21T11:46:40.992Z,17.18
2023-01-21T11:49:07.767Z,17.01
2023-01-21T11:51:42.447Z,18.95
2023-01-21T11:54:16.228Z,20.83
2023-01-21T11:57:02.191Z,23.49
2023-01-21T11:59:34.471Z,22.76
2023-01-21T12:02:19.991Z,22.27
2023-01-21T12:04:49.983Z,23.38
2023-01-21T12:07:28.732Z,23.79
2023-01-21T12:10:08.639Z,21.99
2023-01-21T12:13:00.625Z,21.25
2023-01-21T12:15:46.309Z,22.18
2023-01-21T12:18:34.563Z,21.68
2023-01-21T12:21:05.135Z,22.10
2023-01-21T12:24:07.660Z,23.05
2023-01-21T12:26:47.293Z,22.39
2023-01-21T12:29:14.177Z,21.99
2023-01-21T12:31:47.304Z,20.85
2023-01-21T12:34:36.306Z,20.41
2023-01-21T12:37:09.156Z,19.82
2023-01-21T12:39:42.109Z,19.69
2023-01-21T12:42:29.361Z,19.23
2023-01-21T12:45:04.878Z,17.84
2023-01-21T12:48:04.324Z,16.26
2023-01-21T12:50:39.564Z,15.62
2023-01-21T12:53:09.370Z,14.55
2023-01-21T12:55:57.813Z,13.13
2023-01-21T12:58:30.631Z,13.17
2023-01-21T13:01:01.305Z,12.98
2023-01-21T13:03:41.794Z,12.64
2023-01-21T13:06:53.282Z,12.37
2023-01-21T13:09:31.327Z,12.27
2023-01-21T13:12:05.620Z,11.94
2023-01-21T13:14:39.031Z,12.09
2023-01-21T13:17:15.650Z,11.95
2023-01-21T13:19:42.504Z,12.03
2023-01-21T13:22:23.694Z,12.06
2023-01-21T13:25:20.235Z,11.83
2023-01-21T13:28:01.854Z,12.01
2023-01-21T13:30:49.252Z,11.86
2023-01-21T13:33:28.761Z,11.89
2023-01-21T13:36:36.869Z,11.66
2023-01-21T13:39:03.662Z,11.55
2023-01-21T13:41:49.307Z,11.49
2023-01-21T13:44:30.626Z,11.36
2023-01-21T13:47:20.284Z,11.40
2023-01-21T13:49:59.197Z,11.37
2023-01-21T13:52:40.026Z,11.32
2023-01-21T13:55:22.334Z,11.28
2023-01-21T13:58:17.415Z,11.34
2023-01-21T14:00:55.891Z,11.32
2023-01-21T14:03:25.757Z,11.23
2023-01-21T14:06:26.111Z,11.11
2023-01-21T14:09:07.549Z,11.14
2023-01-21T14:11:50.672Z,10.98
2023-01-21T14:14:34.250Z,10.89
2023-01-21T14:17:28.176Z,10.94
2023-01-21T14:20:09.795Z,10.88
2023-01-21T14:23:01.651Z,10.86
2023-01-21T14:25:57.440Z,10.79
2023-01-21T14:28:39.376Z,10.77
2023-01-21T14:31:21.225Z,10.92
2023-01-21T14:34:22.535Z,10.94
2023-01-21T14:37:02.618Z,10.90
2023-01-21T14:39:41.054Z,11.06
2023-01-21T14:42:11.201Z,11.05
2023-01-21T14:44:40.421Z,11.11
2023-01-21T14:47:23.232Z,11.04
2023-01-21T14:49:52.883Z,11.07
2023-01-21T14:52:36.013Z,10.99
2023-01-21T14:55:03.693Z,10.87
2023-01-21T14:57:34.474Z,10.84
2023-01-21T15:00:24.980Z,10.85
2023-01-21T15:03:14.225Z,10.85
2023-01-21T15:05:48.915Z,10.81
2023-01-21T15:08:25.362Z,10.79
2023-01-21T15:11:06.714Z,10.87
2023-01-21T15:13:33.703Z,10.87
2023-01-21T15:29:54.036Z,10.17
2023-01-21T15:32:27.071Z,10.30
2023-01-21T15:35:21.921Z,10.39
2023-01-21T15:37:52.812Z,10.33
2023-01-21T15:40:25.812Z,10.25
2023-01-21T15:43:11.324Z,10.22
2023-01-21T15:45:45.536Z,10.19
2023-01-21T15:48:40.917Z,10.25
2023-01-21T15:51:48.216Z,10.19
2023-01-21T15:54:32.603Z,10.20
2023-01-21T15:57:13.501Z,10.22
2023-01-21T16:00:02.693Z,10.30
2023-01-21T16:02:33.825Z,10.29
2023-01-21T16:05:04.511Z,10.34
2023-01-21T16:07:49.982Z,10.39
2023-01-21T16:10:35.133Z,10.46
2023-01-21T16:13:04.938Z,10.51
2023-01-21T16:15:43.238Z,10.55
2023-01-21T16:18:21.627Z,10.65
2023-01-21T16:20:53.480Z,10.72
2023-01-21T16:23:22.475Z,10.64
2023-01-21T16:25:51.898Z,10.64
2023-01-21T16:28:20.433Z,10.62
2023-01-21T16:30:59.154Z,10.61
2023-01-21T16:33:26.186Z,10.53
2023-01-21T16:35:56.803Z,10.56
2023-01-21T16:38:32.226Z,10.58
2023-01-21T16:41:24.320Z,10.65
2023-01-21T16:44:02.221Z,10.58
2023-01-21T16:46:37.551Z,10.50
2023-01-21T16:49:12.536Z,10.40
2023-01-21T16:51:44.260Z,10.48
2023-01-21T16:54:20.095Z,10.38
2023-01-21T16:56:49.360Z,10.39
2023-01-21T16:59:28.599Z,10.43
2023-01-21T17:01:57.066Z,10.41
2023-01-21T17:04:24.245Z,10.42
2023-01-21T17:06:51.946Z,10.34
2023-01-21T17:09:27.548Z,10.41
2023-01-21T17:11:57.104Z,10.29
2023-01-21T17:14:30.257Z,10.35
2023-01-21T17:17:00.751Z,10.36
2023-01-21T17:19:31.283Z,10.35
2023-01-21T17:22:01.919Z,10.37
2023-01-21T17:24:38.527Z,10.26
2023-01-21T17:27:11.990Z,10.24
2023-01-21T17:29:38.947Z,10.21
2023-01-21T17:32:22.077Z,10.16
2023-01-21T17:35:07.635Z,10.17
2023-01-21T17:38:05.975Z,10.15
2023-01-21T17:40:40.284Z,10.03
2023-01-21T17:43:25.681Z,10.09
2023-01-21T17:45:53.680Z,9.98
2023-01-21T17:48:29.259Z,10.01
2023-01-21T17:51:14.322Z,9.93
2023-01-21T17:53:49.525Z,9.92
2023-01-21T17:56:34.701Z,9.96
2023-01-21T17:59:04.435Z,9.92
2023-01-21T18:01:31.849Z,9.76
2023-01-21T18:03:58.961Z,9.80
2023-01-21T18:06:30.977Z,9.83
2023-01-21T18:08:58.338Z,9.81
2023-01-21T18:11:25.320Z,9.83
2023-01-21T18:13:52.722Z,9.82
2023-01-21T18:16:20.006Z,9.80
2023-01-21T18:18:47.148Z,9.79
2023-01-21T18:21:19.497Z,9.82
2023-01-21T18:23:47.452Z,9.84
2023-01-21T18:26:24.879Z,9.93
2023-01-21T18:28:51.786Z,9.87
2023-01-21T18:31:18.736Z,9.89
2023-01-21T18:33:45.755Z,9.74
2023-01-21T18:36:12.718Z,9.71
2023-01-21T18:38:39.807Z,9.78
2023-01-21T18:41:08.922Z,9.80
2023-01-21T18:43:36.150Z,9.76
2023-01-21T18:46:03.316Z,9.78
2023-01-21T18:48:31.384Z,9.73
2023-01-21T18:50:58.562Z,9.77
2023-01-21T18:53:26.002Z,9.79
2023-01-21T18:55:56.123Z,9.76
2023-01-21T18:58:23.130Z,9.90
2023-01-21T19:00:50.586Z,9.88
2023-01-21T19:03:17.829Z,9.97
2023-01-21T19:05:47.873Z,9.87
2023-01-21T19:08:22.143Z,9.88
2023-01-21T19:10:49.173Z,9.89
2023-01-21T19:13:16.396Z,10.01
2023-01-21T19:15:43.944Z,9.98
2023-01-21T19:18:15.539Z,9.99
2023-01-21T19:20:43.205Z,10.07
2023-01-21T19:23:15.741Z,10.05
2023-01-21T19:25:50.661Z,10.06
2023-01-21T19:28:18.032Z,10.15
2023-01-21T19:30:46.151Z,10.13
2023-01-21T19:33:13.100Z,10.13
2023-01-21T19:35:45.047Z,10.12
2023-01-21T19:38:21.967Z,10.24
2023-01-21T19:40:49.176Z,10.17
2023-01-21T19:43:18.222Z,10.23
2023-01-21T19:45:45.038Z,10.18
2023-01-21T19:48:18.538Z,10.16
2023-01-21T19:50:46.029Z,10.13
2023-01-21T19:53:18.188Z,9.97
2023-01-21T19:55:46.484Z,9.89
2023-01-21T19:58:28.279Z,9.91
2023-01-21T20:00:55.403Z,9.89
2023-01-21T20:03:25.307Z,9.73
2023-01-21T20:05:57.487Z,9.71
2023-01-21T20:08:28.666Z,9.71
2023-01-21T20:10:55.790Z,9.63
2023-01-21T20:13:22.717Z,9.52
2023-01-21T20:15:51.903Z,9.54
2023-01-21T20:18:28.209Z,9.56
2023-01-21T20:20:55.130Z,9.48
2023-01-21T20:23:23.642Z,9.57
2023-01-21T20:25:53.894Z,9.58
2023-01-21T20:28:23.784Z,9.54
2023-01-21T20:30:51.799Z,9.59
2023-01-21T20:33:21.757Z,9.62
2023-01-21T20:35:51.094Z,9.68
2023-01-21T20:38:24.139Z,9.69
2023-01-21T20:40:51.139Z,9.63
2023-01-21T20:43:20.108Z,9.67
2023-01-21T20:45:48.630Z,9.81
2023-01-21T20:48:25.017Z,9.86
2023-01-21T20:50:52.413Z,9.92
2023-01-21T20:53:19.784Z,9.93
2023-01-21T20:55:48.941Z,10.01
2023-01-21T20:58:17.423Z,10.00
2023-01-21T21:00:46.731Z,9.94
2023-01-21T21:03:16.647Z,9.98
2023-01-21T21:05:47.632Z,10.03
2023-01-21T21:08:20.126Z,10.09
2023-01-21T21:10:48.156Z,10.19
2023-01-21T21:13:15.229Z,10.28
2023-01-21T21:15:45.694Z,10.24
2023-01-21T21:18:14.496Z,10.36
2023-01-21T21:20:42.052Z,10.36
2023-01-21T21:23:14.120Z,10.35
2023-01-21T21:25:43.970Z,10.39
2023-01-21T21:28:13.703Z,10.49
2023-01-21T21:30:40.829Z,10.57
2023-01-21T21:33:12.333Z,10.68
2023-01-21T21:35:40.626Z,10.49
2023-01-21T21:38:16.084Z,10.45
2023-01-21T21:40:45.290Z,10.53
2023-01-21T21:43:35.879Z,10.58
2023-01-21T21:46:28.531Z,10.65
2023-01-21T21:48:55.513Z,10.80
2023-01-21T21:51:23.040Z,10.76
2023-01-21T21:53:50.133Z,10.64
2023-01-21T21:56:24.324Z,10.58
2023-01-21T21:58:51.645Z,10.74
2023-01-21T22:01:21.209Z,10.75
2023-01-21T22:03:48.649Z,10.64
2023-01-21T22:06:17.973Z,10.81
2023-01-21T22:08:45.657Z,10.77
2023-01-21T22:11:18.145Z,10.87
2023-01-21T22:13:47.507Z,10.91
2023-01-21T22:16:18.959Z,10.91
2023-01-21T22:18:46.269Z,10.89
2023-01-21T22:21:19.367Z,10.90
2023-01-21T22:23:46.716Z,11.01
2023-01-21T22:26:16.382Z,10.97
2023-01-21T22:28:43.888Z,11.11
2023-01-21T22:31:14.018Z,11.12
2023-01-21T22:33:41.487Z,11.25
2023-01-21T22:36:11.343Z,11.29
2023-01-21T22:38:40.625Z,11.35
2023-01-21T22:41:09.450Z,11.38
2023-01-21T22:43:39.394Z,11.23
2023-01-21T22:46:06.349Z,11.30
2023-01-21T22:48:33.960Z,11.41
2023-01-21T22:51:01.846Z,11.27
2023-01-21T22:53:29.140Z,11.12
2023-01-21T22:56:01.137Z,10.91
2023-01-21T22:58:30.584Z,10.81
2023-01-21T23:00:59.258Z,10.80
2023-01-21T23:03:27.861Z,10.79
2023-01-21T23:05:57.338Z,10.80
2023-01-21T23:08:24.192Z,10.89
2023-01-21T23:11:00.977Z,10.91
2023-01-21T23:13:27.924Z,10.98
2023-01-21T23:15:55.100Z,11.05
2023-01-21T23:18:22.437Z,11.05
2023-01-21T23:20:49.377Z,11.05
2023-01-21T23:23:16.319Z,11.06
2023-01-21T23:25:44.793Z,11.09
2023-01-21T23:28:12.530Z,11.14
2023-01-21T23:30:39.606Z,11.16
2023-01-21T23:33:06.794Z,11.05
2023-01-21T23:35:34.970Z,11.02
2023-01-21T23:38:03.349Z,11.02
2023-01-21T23:40:30.302Z,11.06
2023-01-21T23:42:58.664Z,11.06
2023-01-21T23:45:25.801Z,11.13
2023-01-21T23:47:53.879Z,11.13
2023-01-21T23:50:21.098Z,11.18
2023-01-21T23:52:48.469Z,11.16
2023-01-21T23:55:15.420Z,11.04
2023-01-21T23:57:42.281Z,11.07
